Time;durP1;ratioP1;P1;durP2;ratioP2;P2;SDS_P1;SDS_P2;PMS_P1;PMS_P2;Temp;Humidity;BMP_temperature;BMP_pressure;BME280_temperature;BME280_humidity;BME280_pressure;Samples;Min_cycle;Max_cycle;Signal;HPM_P1;HPM_P2
2021/07/09 08:59:33;;;;;;;27.87;9.25;;;29.00;74.80;;;;;;1912529;74;22219;-74
2021/07/09 09:02:07;;;;;;;27.20;9.08;;;28.00;79.70;;;;;;1847347;77;21001;-71
2021/07/09 09:04:35;;;;;;;18.92;8.85;;;27.90;79.20;;;;;;1783811;77;130115;-69
2021/07/09 09:07:17;;;;;;;21.65;8.63;;;27.80;81.00;;;;;;1714464;83;21057;-75
2021/07/09 09:09:47;;;;;;;18.92;8.78;;;27.70;81.90;;;;;;1717542;82;21075;-76
2021/07/09 09:12:17;;;;;;;21.42;10.18;;;27.60;82.90;;;;;;1742201;79;229912;-76
2021/07/09 09:14:51;;;;;;;19.85;11.55;;;27.60;83.60;;;;;;1728064;82;21022;-76
2021/07/09 09:17:37;;;;;;;23.07;12.07;;;27.60;84.60;;;;;;1748179;82;21151;-76
2021/07/09 09:20:17;;;;;;;20.48;11.78;;;27.60;85.10;;;;;;1707343;82;21021;-77
2021/07/09 09:22:55;;;;;;;23.90;12.40;;;27.50;85.50;;;;;;1745273;82;21072;-75
2021/07/09 09:25:32;;;;;;;23.83;11.43;;;27.50;86.00;;;;;;1741720;82;21053;-76
2021/07/09 09:28:10;;;;;;;19.48;10.93;;;27.40;86.50;;;;;;1747554;82;21029;-72
2021/07/09 09:33:37;;;;;;;16.80;11.22;;;27.40;87.40;;;;;;1701866;83;21073;-78
2021/07/09 09:36:09;;;;;;;22.22;11.75;;;27.50;88.00;;;;;;1701122;83;21601;-77
2021/07/09 09:38:37;;;;;;;19.52;12.50;;;27.40;88.30;;;;;;1703786;83;21121;-76
2021/07/09 09:41:10;;;;;;;19.73;12.37;;;27.40;88.20;;;;;;1700841;83;21521;-79
2021/07/09 09:43:43;;;;;;;21.42;11.65;;;27.40;87.90;;;;;;1670222;85;21048;-75
2021/07/09 09:46:10;;;;;;;19.92;11.78;;;27.40;88.30;;;;;;1732168;82;21017;-75
2021/07/09 09:48:47;;;;;;;18.95;11.08;;;27.40;88.40;;;;;;1730233;79;21100;-74
2021/07/09 09:51:37;;;;;;;19.30;9.98;;;27.50;89.00;;;;;;1716214;83;21068;-73
2021/07/09 09:54:12;;;;;;;20.02;10.40;;;27.40;87.50;;;;;;1715563;83;21103;-72
2021/07/09 09:56:47;;;;;;;16.50;10.03;;;27.50;87.90;;;;;;1717474;83;21032;-72
2021/07/09 09:59:18;;;;;;;14.73;8.73;;;27.50;87.50;;;;;;1704217;83;21036;-72
2021/07/09 10:02:01;;;;;;;14.78;9.08;;;27.50;86.50;;;;;;1669092;84;21543;-72
2021/07/09 10:04:29;;;;;;;18.12;8.88;;;27.60;85.80;;;;;;1661128;80;2994769;-74
2021/07/09 10:06:58;;;;;;;22.27;8.55;;;27.60;86.00;;;;;;1702290;82;23110;-73
2021/07/09 10:09:27;;;;;;;16.42;8.90;;;27.70;84.70;;;;;;1698872;83;21065;-73
2021/07/09 10:12:03;;;;;;;19.12;9.73;;;27.70;84.10;;;;;;1706448;83;21061;-73
2021/07/09 10:14:36;;;;;;;18.92;9.45;;;27.70;85.80;;;;;;1696778;83;21490;-80
2021/07/09 10:17:05;;;;;;;14.63;9.20;;;27.70;84.80;;;;;;1699669;83;21066;-74
2021/07/09 10:19:42;;;;;;;20.75;8.78;;;27.80;84.00;;;;;;1692322;83;21089;-74
2021/07/09 10:22:12;;;;;;;19.67;9.38;;;27.80;83.80;;;;;;1695835;83;21070;-75
2021/07/09 10:24:46;;;;;;;19.65;9.15;;;27.80;83.70;;;;;;1703331;83;21053;-78
2021/07/09 10:27:16;;;;;;;16.20;8.85;;;27.90;83.30;;;;;;1707336;83;21078;-72
2021/07/09 10:29:45;;;;;;;14.78;8.83;;;27.90;82.90;;;;;;1691150;83;21030;-83
2021/07/09 10:32:15;;;;;;;13.03;9.23;;;27.90;82.80;;;;;;1695249;83;21089;-72
2021/07/09 10:34:52;;;;;;;14.20;8.20;;;27.90;82.90;;;;;;1670019;80;35821;-75
2021/07/09 10:37:30;;;;;;;14.55;8.75;;;27.90;82.80;;;;;;1604722;88;21085;-76
2021/07/09 10:40:14;;;;;;;13.30;8.03;;;27.90;82.50;;;;;;1614233;88;21033;-76
2021/07/09 10:45:42;;;;;;;14.30;8.78;;;27.90;85.70;;;;;;1562539;90;21529;-77
2021/07/09 10:48:19;;;;;;;13.03;8.48;;;27.90;86.80;;;;;;1603743;89;21031;-70
2021/07/09 10:50:52;;;;;;;15.85;8.88;;;27.90;86.10;;;;;;1603417;89;21094;-70
2021/07/09 10:53:29;;;;;;;14.78;8.50;;;27.90;86.30;;;;;;1588346;89;21124;-77
2021/07/09 10:56:07;;;;;;;18.17;9.13;;;27.90;86.10;;;;;;1603259;89;21114;-73
2021/07/09 10:58:46;;;;;;;12.55;8.75;;;27.90;86.00;;;;;;1578996;90;21073;-68
2021/07/09 11:01:22;;;;;;;13.25;8.20;;;27.90;85.90;;;;;;1584065;90;21088;-73
2021/07/09 11:03:50;;;;;;;;;;;27.80;85.70;;;;;;1584636;89;21105;-72
2021/07/09 11:06:36;;;;;;;14.38;8.10;;;27.90;85.70;;;;;;1562802;91;20138;-73
2021/07/09 11:09:10;;;;;;;11.60;8.45;;;27.80;87.90;;;;;;1603970;89;21066;-71
2021/07/09 11:11:45;;;;;;;14.05;8.40;;;27.80;89.30;;;;;;1603821;88;21534;-73
2021/07/09 11:14:22;;;;;;;13.68;8.75;;;27.80;89.20;;;;;;1603778;89;21070;-73
2021/07/09 11:17:01;;;;;;;11.73;7.92;;;27.80;88.60;;;;;;1584894;89;21132;-67
2021/07/09 11:19:32;;;;;;;13.80;7.97;;;27.80;88.30;;;;;;1603851;89;21145;-70
2021/07/09 11:22:06;;;;;;;12.88;7.58;;;27.90;88.40;;;;;;1603075;89;21090;-72
2021/07/09 11:24:49;;;;;;;10.45;7.62;;;27.90;88.00;;;;;;1604003;89;21579;-69
2021/07/09 11:27:13;;;;;;;13.65;7.70;;;27.90;87.90;;;;;;1582184;90;21083;-69
2021/07/09 11:29:46;;;;;;;28.40;12.55;;;27.90;87.70;;;;;;1583678;90;21061;-73
2021/07/09 11:32:16;;;;;;;30.40;12.55;;;28.00;87.40;;;;;;1603119;88;21141;-72
2021/07/09 11:34:49;;;;;;;22.55;11.48;;;28.00;87.50;;;;;;1602820;89;21114;-67
2021/07/09 11:37:22;;;;;;;17.35;8.65;;;28.10;86.10;;;;;;1602886;89;21107;-71
2021/07/09 11:39:54;;;;;;;15.65;9.15;;;28.00;83.80;;;;;;1581330;90;21077;-75
2021/07/09 11:42:31;;;;;;;16.23;9.18;;;28.10;85.70;;;;;;1583008;90;21347;-76
2021/07/09 11:45:07;;;;;;;17.85;9.15;;;28.10;86.50;;;;;;1595605;88;21177;-77
2021/07/09 11:47:43;;;;;;;16.48;9.60;;;28.10;86.50;;;;;;1602504;89;21102;-79
2021/07/09 11:50:17;;;;;;;20.00;9.48;;;28.10;86.40;;;;;;1617180;88;21563;-75
2021/07/09 11:52:58;;;;;;;16.73;8.68;;;28.10;86.20;;;;;;1617313;88;21241;-75
2021/07/09 11:55:30;;;;;;;13.48;8.55;;;28.10;86.30;;;;;;1590680;89;21594;-80
2021/07/09 11:58:08;;;;;;;15.65;9.35;;;28.10;86.50;;;;;;1617238;88;21087;-73
2021/07/09 12:00:34;;;;;;;15.35;8.95;;;28.10;86.50;;;;;;1603939;88;21574;-74
2021/07/09 12:03:01;;;;;;;16.07;9.53;;;28.10;86.30;;;;;;1616904;88;21005;-69
2021/07/09 12:05:32;;;;;;;13.18;8.50;;;28.10;86.40;;;;;;1615585;88;21119;-75
2021/07/09 12:07:59;;;;;;;109.52;16.80;;;28.10;85.70;;;;;;1603270;89;21041;-76
2021/07/09 12:10:32;;;;;;;15.90;9.18;;;28.10;86.60;;;;;;1602953;88;21102;-70
2021/07/09 12:13:02;;;;;;;12.95;8.60;;;28.00;86.90;;;;;;1615690;88;21048;-74
2021/07/09 12:15:33;;;;;;;15.85;8.63;;;28.00;87.00;;;;;;1616007;88;21068;-67
2021/07/09 12:18:11;;;;;;;17.95;9.18;;;28.00;87.30;;;;;;1616614;88;21611;-68
2021/07/09 12:20:42;;;;;;;14.10;8.60;;;28.00;87.60;;;;;;1616310;88;21057;-70
2021/07/09 12:23:16;;;;;;;15.65;8.30;;;28.00;87.70;;;;;;1615807;88;21060;-71
2021/07/09 12:25:52;;;;;;;13.98;8.58;;;27.90;87.80;;;;;;1616509;88;21130;-71
2021/07/09 12:28:28;;;;;;;23.50;8.58;;;27.90;88.00;;;;;;1615931;88;21093;-69
2021/07/09 12:31:07;;;;;;;14.33;8.00;;;28.00;88.50;;;;;;1614935;88;21091;-77
2021/07/09 12:33:36;;;;;;;12.85;7.50;;;27.90;87.80;;;;;;1613505;88;21112;-70
2021/07/09 12:36:07;;;;;;;12.78;6.80;;;28.10;85.60;;;;;;1614769;88;21095;-69
2021/07/09 12:38:41;;;;;;;12.07;6.60;;;28.30;83.80;;;;;;1604185;88;21146;-78
2021/07/09 12:41:13;;;;;;;11.05;6.70;;;28.40;80.90;;;;;;1615442;88;21159;-77
2021/07/09 12:43:52;;;;;;;9.85;6.10;;;28.50;79.30;;;;;;1627507;86;21142;-77
2021/07/09 12:46:31;;;;;;;8.88;5.95;;;28.50;78.00;;;;;;1606660;87;21114;-70
2021/07/09 12:49:02;;;;;;;16.70;8.10;;;28.60;77.00;;;;;;1607781;88;21093;-69
2021/07/09 12:51:39;;;;;;;15.70;8.83;;;28.60;76.10;;;;;;1607450;88;21074;-75
2021/07/09 12:54:14;;;;;;;16.77;8.58;;;28.60;75.60;;;;;;1607849;87;21057;-74
2021/07/09 12:57:05;;;;;;;14.55;7.50;;;28.60;75.10;;;;;;1607100;89;21011;-77
2021/07/09 12:59:32;;;;;;;14.28;7.33;;;28.50;74.40;;;;;;1606634;87;21122;-74
2021/07/09 13:02:10;;;;;;;11.30;7.15;;;28.50;73.60;;;;;;1606759;87;21044;-72
2021/07/09 13:04:43;;;;;;;9.80;6.45;;;28.50;72.80;;;;;;1607044;87;21044;-67
2021/07/09 13:07:23;;;;;;;8.15;5.37;;;28.40;72.40;;;;;;1606705;87;21659;-71
2021/07/09 13:09:51;;;;;;;8.63;5.42;;;28.40;72.40;;;;;;1608105;87;21130;-67
2021/07/09 13:12:25;;;;;;;8.53;5.30;;;28.40;72.40;;;;;;1607436;88;21048;-72
2021/07/09 13:14:57;;;;;;;8.48;5.30;;;28.40;72.10;;;;;;1608324;88;21082;-68
2021/07/09 13:17:25;;;;;;;7.90;5.65;;;28.40;72.10;;;;;;1608412;88;21110;-68
2021/07/09 13:20:02;;;;;;;7.35;5.42;;;28.40;72.10;;;;;;1606949;88;21062;-69
2021/07/09 13:22:46;;;;;;;7.80;5.60;;;28.40;71.90;;;;;;1606637;88;21701;-67
2021/07/09 13:25:26;;;;;;;7.55;5.30;;;28.40;71.80;;;;;;1606970;88;21030;-75
2021/07/09 13:28:10;;;;;;;9.60;5.90;;;28.40;72.00;;;;;;1607143;87;21051;-73
2021/07/09 13:30:39;;;;;;;7.20;4.50;;;28.40;71.80;;;;;;1607535;88;21073;-68
2021/07/09 13:33:13;;;;;;;7.75;4.78;;;28.40;71.50;;;;;;1606677;88;21124;-68
2021/07/09 13:35:43;;;;;;;8.83;4.97;;;28.40;71.00;;;;;;1607546;88;21115;-68
2021/07/09 13:38:13;;;;;;;8.13;4.42;;;28.40;70.70;;;;;;1607362;87;21066;-68
2021/07/09 13:40:39;;;;;;;5.28;4.35;;;28.40;70.50;;;;;;1607210;88;21189;-69
2021/07/09 13:43:07;;;;;;;5.55;4.50;;;28.40;70.30;;;;;;1607832;88;21017;-69
2021/07/09 13:45:34;;;;;;;6.40;4.10;;;28.40;70.00;;;;;;1614304;88;21118;-70
2021/07/09 13:48:02;;;;;;;6.12;4.08;;;28.40;69.70;;;;;;1624601;87;20993;-71
2021/07/09 13:50:31;;;;;;;6.05;4.33;;;28.40;69.50;;;;;;1623057;87;21562;-70
2021/07/09 13:52:59;;;;;;;5.80;4.33;;;28.40;69.20;;;;;;1623341;87;21050;-72
2021/07/09 13:55:26;;;;;;;5.92;4.33;;;28.50;69.20;;;;;;1621618;87;21058;-74
2021/07/09 13:57:53;;;;;;;6.30;4.50;;;28.40;68.60;;;;;;1623624;87;21049;-73
2021/07/09 14:00:20;;;;;;;5.12;4.37;;;28.50;68.50;;;;;;1589349;89;21126;-72
2021/07/09 14:02:47;;;;;;;6.50;4.80;;;28.50;68.70;;;;;;1591356;89;21057;-74
2021/07/09 14:05:13;;;;;;;8.68;4.58;;;28.50;68.30;;;;;;1605774;88;21055;-74
